createdAt,value
2018-05-07T00:02:09.631Z,87.20
2018-05-07T00:04:37.192Z,87.70
2018-05-07T00:07:04.766Z,88.10
2018-05-07T00:09:32.251Z,87.80
2018-05-07T00:11:59.808Z,87.20
2018-05-07T00:14:27.358Z,87.00
2018-05-07T00:16:54.894Z,86.60
2018-05-07T00:19:22.412Z,86.80
2018-05-07T00:21:49.919Z,86.70
2018-05-07T00:24:17.458Z,87.00
2018-05-07T00:26:44.954Z,88.40
2018-05-07T00:29:12.479Z,88.60
2018-05-07T00:31:40.778Z,88.20
2018-05-07T00:34:09.030Z,88.50
2018-05-07T00:36:36.583Z,88.40
2018-05-07T00:39:04.126Z,87.60
2018-05-07T00:41:31.646Z,88.10
2018-05-07T00:43:59.158Z,88.40
2018-05-07T00:46:26.652Z,88.70
2018-05-07T00:48:54.146Z,89.10
2018-05-07T00:51:21.666Z,89.30
2018-05-07T00:53:49.194Z,89.80
2018-05-07T00:56:16.680Z,90.10
2018-05-07T00:58:44.188Z,89.60
2018-05-07T01:01:12.459Z,88.60
2018-05-07T01:03:40.740Z,89.30
2018-05-07T01:06:09.042Z,89.20
2018-05-07T01:08:36.542Z,89.20
2018-05-07T01:11:04.055Z,88.50
2018-05-07T01:13:32.323Z,89.80
2018-05-07T01:15:59.813Z,89.70
2018-05-07T01:18:27.345Z,89.60
2018-05-07T01:20:54.859Z,88.80
2018-05-07T01:23:22.368Z,90.00
2018-05-07T01:25:49.889Z,89.10
2018-05-07T01:28:18.179Z,90.20
2018-05-07T01:30:45.688Z,90.10
2018-05-07T01:33:13.981Z,90.00
2018-05-07T01:35:42.257Z,90.10
2018-05-07T01:38:09.768Z,90.10
2018-05-07T01:40:37.269Z,90.10
2018-05-07T01:43:04.816Z,89.80
2018-05-07T01:45:32.316Z,89.40
2018-05-07T01:48:00.579Z,89.60
2018-05-07T01:50:28.099Z,89.50
2018-05-07T01:52:55.600Z,89.50
2018-05-07T01:55:23.892Z,88.30
2018-05-07T01:57:52.162Z,88.40
2018-05-07T02:00:19.659Z,88.40
2018-05-07T02:02:47.170Z,88.60
2018-05-07T02:05:14.714Z,87.80
2018-05-07T02:07:42.234Z,88.20
2018-05-07T02:10:10.496Z,88.60
2018-05-07T02:12:38.840Z,88.50
2018-05-07T02:15:06.347Z,88.40
2018-05-07T02:17:33.855Z,88.30
2018-05-07T02:20:01.362Z,89.00
2018-05-07T02:22:28.873Z,89.10
2018-05-07T02:24:56.362Z,88.40
2018-05-07T02:27:23.868Z,88.60
2018-05-07T02:29:52.137Z,89.00
2018-05-07T02:32:19.679Z,89.00
2018-05-07T02:34:47.200Z,89.40
2018-05-07T02:37:14.713Z,88.90
2018-05-07T02:39:42.231Z,90.00
2018-05-07T02:42:09.757Z,90.00
2018-05-07T02:44:37.317Z,90.10
2018-05-07T02:47:04.834Z,89.90
2018-05-07T02:49:32.339Z,89.30
2018-05-07T02:51:59.840Z,88.80
2018-05-07T02:54:27.332Z,87.50
2018-05-07T02:56:54.871Z,87.20
2018-05-07T02:59:22.399Z,87.00
2018-05-07T03:01:49.919Z,87.00
2018-05-07T03:04:17.436Z,88.60
2018-05-07T03:06:45.734Z,88.20
2018-05-07T03:09:13.273Z,88.20
2018-05-07T03:11:40.797Z,88.80
2018-05-07T03:14:08.295Z,89.50
2018-05-07T03:16:35.807Z,88.30
2018-05-07T03:19:03.295Z,88.20
2018-05-07T03:21:30.925Z,89.30
2018-05-07T03:23:58.359Z,90.30
2018-05-07T03:26:25.906Z,90.20
2018-05-07T03:28:53.415Z,90.10
2018-05-07T03:31:20.927Z,90.00
2018-05-07T03:33:48.449Z,90.10
2018-05-07T03:36:16.718Z,90.80
2018-05-07T03:38:44.225Z,90.80
2018-05-07T03:41:11.714Z,90.60
2018-05-07T03:43:39.212Z,90.70
2018-05-07T03:46:06.756Z,90.60
2018-05-07T03:48:34.251Z,90.80
2018-05-07T03:51:01.741Z,90.50
2018-05-07T03:53:29.254Z,90.20
2018-05-07T03:55:57.516Z,90.70
2018-05-07T03:58:25.055Z,90.70
2018-05-07T04:00:52.560Z,91.30
2018-05-07T04:03:20.828Z,91.20
2018-05-07T04:05:49.117Z,90.90
2018-05-07T04:08:17.393Z,90.90
2018-05-07T04:10:46.602Z,91.10
2018-05-07T04:13:14.939Z,91.60
2018-05-07T04:15:42.371Z,91.60
2018-05-07T04:18:21.676Z,91.70
2018-05-07T04:21:01.007Z,91.40
2018-05-07T04:23:41.230Z,91.70
2018-05-07T04:26:08.737Z,91.70
2018-05-07T04:28:36.273Z,91.40
2018-05-07T04:31:03.778Z,91.30
2018-05-07T04:33:31.299Z,91.50
2018-05-07T04:35:58.810Z,91.60
2018-05-07T04:38:27.076Z,91.70
2018-05-07T04:40:54.590Z,91.60
2018-05-07T04:43:22.084Z,91.50
2018-05-07T04:45:50.355Z,91.30
2018-05-07T04:48:17.867Z,91.30
2018-05-07T04:50:45.389Z,91.60
2018-05-07T04:53:13.691Z,91.50
2018-05-07T04:55:41.195Z,91.50
2018-05-07T04:58:08.709Z,91.30
2018-05-07T05:00:36.263Z,91.00
2018-05-07T05:03:04.541Z,91.30
2018-05-07T05:05:32.844Z,91.40
2018-05-07T05:08:01.118Z,91.50
2018-05-07T05:10:29.383Z,91.00
2018-05-07T05:12:57.664Z,90.90
2018-05-07T05:15:25.944Z,90.50
2018-05-07T05:17:54.226Z,90.30
2018-05-07T05:20:22.502Z,90.10
2018-05-07T05:22:50.025Z,90.00
2018-05-07T05:25:17.532Z,90.00
2018-05-07T05:27:45.796Z,90.40
2018-05-07T05:30:13.326Z,90.40
2018-05-07T05:32:40.823Z,90.70
2018-05-07T05:35:08.321Z,90.90
2018-05-07T05:37:35.825Z,91.10
2018-05-07T05:40:03.364Z,91.20
2018-05-07T05:42:30.892Z,91.20
2018-05-07T05:44:58.398Z,91.20
2018-05-07T05:47:25.896Z,91.10
2018-05-07T05:49:53.460Z,91.30
2018-05-07T05:52:20.963Z,91.50
2018-05-07T05:54:49.318Z,91.20
2018-05-07T05:57:16.827Z,91.20
2018-05-07T05:59:44.346Z,91.10
2018-05-07T06:02:11.871Z,90.00
2018-05-07T06:04:39.384Z,89.50
2018-05-07T06:07:07.662Z,87.50
2018-05-07T06:09:35.934Z,87.60
2018-05-07T06:12:03.455Z,87.50
2018-05-07T06:14:30.991Z,87.20
2018-05-07T06:16:58.519Z,85.70
2018-05-07T06:19:26.023Z,85.20
2018-05-07T06:21:53.533Z,84.30
2018-05-07T06:24:21.045Z,83.40
2018-05-07T06:26:48.560Z,82.50
2018-05-07T06:29:16.082Z,82.50
2018-05-07T06:31:43.601Z,81.80
2018-05-07T06:34:11.114Z,80.00
2018-05-07T06:36:38.611Z,80.10
2018-05-07T06:39:06.128Z,80.70
2018-05-07T06:41:33.642Z,79.00
2018-05-07T06:44:01.135Z,78.70
2018-05-07T06:46:29.402Z,77.40
2018-05-07T06:48:56.951Z,77.30
2018-05-07T06:51:24.469Z,76.70
2018-05-07T06:53:52.021Z,78.20
2018-05-07T06:56:19.541Z,78.80
2018-05-07T06:58:47.048Z,78.00
2018-05-07T07:01:15.376Z,77.90
2018-05-07T07:03:43.024Z,77.80
2018-05-07T07:06:10.621Z,76.20
2018-05-07T07:08:38.232Z,77.60
2018-05-07T07:11:05.684Z,76.40
2018-05-07T07:13:33.939Z,74.80
2018-05-07T07:16:01.558Z,74.80
2018-05-07T07:18:29.136Z,74.80
2018-05-07T07:20:56.681Z,74.30
2018-05-07T07:23:24.253Z,74.20
2018-05-07T07:25:51.797Z,75.20
2018-05-07T07:28:19.355Z,74.50
2018-05-07T07:30:46.819Z,74.10
2018-05-07T07:33:15.097Z,73.90
2018-05-07T07:35:43.365Z,73.80
2018-05-07T07:38:11.660Z,73.80
2018-05-07T07:40:39.924Z,73.30
2018-05-07T07:43:08.217Z,73.30
2018-05-07T07:45:36.492Z,73.00
2018-05-07T07:48:04.773Z,72.70
2018-05-07T07:50:32.307Z,72.70
2018-05-07T07:52:59.835Z,73.70
2018-05-07T07:55:27.320Z,74.40
2018-05-07T07:57:54.901Z,72.80
2018-05-07T08:00:23.184Z,72.40
2018-05-07T08:02:50.730Z,72.40
2018-05-07T08:05:18.244Z,72.50
2018-05-07T08:07:46.576Z,70.00
2018-05-07T08:10:14.100Z,70.00
2018-05-07T08:12:41.741Z,68.40
2018-05-07T08:15:09.248Z,68.20
2018-05-07T08:17:36.751Z,67.60
2018-05-07T08:20:04.247Z,67.50
2018-05-07T08:22:32.568Z,67.00
2018-05-07T08:25:00.070Z,67.00
2018-05-07T08:27:27.664Z,68.40
2018-05-07T08:29:55.978Z,66.60
2018-05-07T08:32:23.492Z,66.60
2018-05-07T08:34:51.790Z,66.50
2018-05-07T08:37:20.057Z,66.30
2018-05-07T08:39:48.371Z,66.90
2018-05-07T08:42:15.993Z,66.90
2018-05-07T08:44:43.428Z,66.70
2018-05-07T08:47:10.962Z,66.00
2018-05-07T08:49:38.474Z,64.10
2018-05-07T08:52:06.352Z,62.10
2018-05-07T08:54:33.888Z,62.00
2018-05-07T08:57:01.395Z,63.10
2018-05-07T08:59:29.674Z,60.60
2018-05-07T09:01:57.972Z,60.50
2018-05-07T09:04:25.490Z,60.40
2018-05-07T09:06:53.023Z,61.10
2018-05-07T09:09:20.527Z,61.10
2018-05-07T09:11:48.033Z,61.10
2018-05-07T09:14:15.583Z,58.80
2018-05-07T09:16:43.856Z,58.60
2018-05-07T09:19:12.115Z,58.40
2018-05-07T09:21:39.681Z,58.40
2018-05-07T09:24:07.160Z,57.80
2018-05-07T09:26:34.678Z,59.40
2018-05-07T09:29:02.182Z,58.80
2018-05-07T09:31:30.452Z,56.10
2018-05-07T09:33:57.993Z,56.10
2018-05-07T09:36:25.518Z,55.60
2018-05-07T09:38:53.040Z,55.50
2018-05-07T09:41:20.555Z,56.40
2018-05-07T09:43:48.080Z,56.40
2018-05-07T09:46:16.383Z,56.10
2018-05-07T09:48:43.883Z,56.10
2018-05-07T09:51:11.398Z,55.20
2018-05-07T09:53:39.678Z,55.20
2018-05-07T09:56:07.960Z,56.50
2018-05-07T09:58:36.258Z,55.00
2018-05-07T10:01:03.775Z,55.00
2018-05-07T10:03:31.302Z,54.20
2018-05-07T10:05:58.812Z,55.20
2018-05-07T10:08:26.364Z,54.20
2018-05-07T10:10:53.896Z,53.20
2018-05-07T10:13:21.445Z,52.00
2018-05-07T10:15:48.950Z,52.20
2018-05-07T10:18:16.461Z,53.00
2018-05-07T10:20:44.738Z,52.30
2018-05-07T10:23:13.003Z,52.00
2018-05-07T10:25:41.296Z,51.90
2018-05-07T10:28:08.827Z,51.90
2018-05-07T10:30:36.331Z,51.60
2018-05-07T10:33:04.619Z,51.50
2018-05-07T10:35:32.124Z,51.50
2018-05-07T10:37:59.627Z,50.30
2018-05-07T10:40:27.894Z,50.80
2018-05-07T10:42:57.068Z,50.80
2018-05-07T10:45:24.604Z,50.10
2018-05-07T10:47:52.126Z,50.10
2018-05-07T10:50:20.423Z,50.70
2018-05-07T10:52:48.729Z,51.10
2018-05-07T10:55:16.229Z,51.20
2018-05-07T10:57:43.720Z,50.30
2018-05-07T11:00:12.022Z,49.90
2018-05-07T11:02:39.554Z,49.90
2018-05-07T11:05:07.095Z,48.60
2018-05-07T11:07:34.592Z,49.80
2018-05-07T11:10:02.101Z,48.90
2018-05-07T11:12:29.604Z,47.90
2018-05-07T11:14:57.838Z,48.20
2018-05-07T11:17:25.344Z,48.00
2018-05-07T11:19:52.842Z,49.40
2018-05-07T11:22:20.342Z,49.50
2018-05-07T11:24:47.856Z,48.30
2018-05-07T11:27:16.134Z,47.20
2018-05-07T11:29:43.634Z,47.10
2018-05-07T11:32:11.151Z,46.50
2018-05-07T11:34:38.662Z,47.00
2018-05-07T11:37:06.253Z,47.30
2018-05-07T11:39:33.791Z,47.00
2018-05-07T11:42:01.287Z,47.00
2018-05-07T11:44:28.816Z,46.60
2018-05-07T11:46:57.086Z,45.40
2018-05-07T11:49:24.615Z,45.30
2018-05-07T11:51:52.122Z,45.30
2018-05-07T11:54:19.648Z,45.30
2018-05-07T11:56:47.178Z,44.90
2018-05-07T11:59:14.676Z,45.40
2018-05-07T12:01:42.951Z,44.70
2018-05-07T12:04:11.226Z,44.60
2018-05-07T12:06:38.734Z,44.60
2018-05-07T12:09:06.299Z,44.50
2018-05-07T12:11:33.777Z,45.40
2018-05-07T12:14:01.337Z,45.30
2018-05-07T12:16:28.845Z,44.90
2018-05-07T12:18:56.369Z,45.20
2018-05-07T12:21:23.897Z,45.90
2018-05-07T12:23:52.183Z,46.80
2018-05-07T12:26:19.690Z,46.80
2018-05-07T12:28:47.189Z,47.90
2018-05-07T12:31:15.506Z,45.80
2018-05-07T12:33:43.763Z,46.60
2018-05-07T12:36:12.021Z,45.30
2018-05-07T12:38:39.546Z,45.30
2018-05-07T12:41:07.065Z,45.30
2018-05-07T12:43:35.349Z,46.20
2018-05-07T12:46:02.868Z,46.20
2018-05-07T12:48:30.366Z,45.80
2018-05-07T12:50:58.647Z,45.90
2018-05-07T12:53:26.983Z,46.40
2018-05-07T12:55:54.484Z,45.80
2018-05-07T12:58:22.004Z,46.40
2018-05-07T13:00:49.518Z,43.90
2018-05-07T13:03:17.787Z,44.60
2018-05-07T13:05:45.324Z,44.60
2018-05-07T13:08:12.823Z,45.50
2018-05-07T13:10:41.141Z,45.20
2018-05-07T13:13:08.708Z,45.20
2018-05-07T13:15:36.151Z,46.60
2018-05-07T13:18:04.444Z,44.80
2018-05-07T13:20:31.949Z,44.80
2018-05-07T13:22:59.467Z,45.40
2018-05-07T13:25:26.973Z,46.90
2018-05-07T13:27:54.468Z,45.20
2018-05-07T13:30:21.944Z,45.70
2018-05-07T13:32:49.451Z,45.70
2018-05-07T13:35:16.985Z,45.00
2018-05-07T13:37:44.488Z,46.00
2018-05-07T13:40:12.019Z,45.40
2018-05-07T13:42:39.511Z,45.50
2018-05-07T13:45:07.034Z,46.60
2018-05-07T13:47:34.552Z,46.50
2018-05-07T13:50:02.052Z,48.20
2018-05-07T13:52:29.571Z,48.00
2018-05-07T13:54:57.074Z,49.30
2018-05-07T13:57:25.324Z,49.40
2018-05-07T13:59:52.832Z,49.40
2018-05-07T14:02:20.328Z,50.50
2018-05-07T14:04:47.833Z,52.40
2018-05-07T14:07:16.114Z,52.70
2018-05-07T14:09:44.376Z,52.60
2018-05-07T14:12:11.895Z,52.50
2018-05-07T14:14:39.398Z,52.70
2018-05-07T14:17:06.919Z,53.80
2018-05-07T14:19:34.422Z,53.80
2018-05-07T14:22:01.943Z,55.40
2018-05-07T14:24:29.460Z,55.10
2018-05-07T14:26:56.986Z,55.80
2018-05-07T14:29:25.277Z,59.00
2018-05-07T14:31:52.782Z,59.00
2018-05-07T14:34:20.289Z,59.70
2018-05-07T14:36:47.800Z,59.80
2018-05-07T14:39:15.307Z,60.50
2018-05-07T14:41:42.827Z,60.50
2018-05-07T14:44:10.340Z,60.60
2018-05-07T14:46:37.841Z,61.00
2018-05-07T14:49:05.351Z,62.50
2018-05-07T14:51:32.858Z,63.60
2018-05-07T14:54:00.368Z,62.30
2018-05-07T14:56:27.879Z,61.70
2018-05-07T14:58:55.709Z,62.70
2018-05-07T15:01:23.395Z,57.10
2018-05-07T15:03:50.981Z,58.10
2018-05-07T15:06:18.527Z,59.60
2018-05-07T15:08:50.136Z,60.00
2018-05-07T15:11:17.931Z,59.40
2018-05-07T15:13:45.642Z,58.40
2018-05-07T15:16:13.248Z,58.30
2018-05-07T15:18:41.522Z,59.00
2018-05-07T15:21:09.030Z,59.10
2018-05-07T15:23:36.513Z,59.80
2018-05-07T15:26:04.823Z,58.50
2018-05-07T15:28:32.318Z,58.50
2018-05-07T15:30:59.833Z,59.10
2018-05-07T15:33:27.331Z,57.30
2018-05-07T15:35:55.592Z,57.70
2018-05-07T15:38:23.094Z,57.70
2018-05-07T15:40:50.601Z,57.50
2018-05-07T15:43:18.143Z,59.40
2018-05-07T15:45:45.666Z,58.70
2018-05-07T15:48:13.936Z,58.40
2018-05-07T15:50:42.209Z,56.10
2018-05-07T15:53:09.705Z,56.00
2018-05-07T15:55:37.243Z,54.50
2018-05-07T15:58:04.762Z,55.20
2018-05-07T16:00:32.274Z,53.80
2018-05-07T16:03:00.621Z,55.10
2018-05-07T16:05:28.052Z,55.00
2018-05-07T16:07:55.568Z,55.70
2018-05-07T16:10:23.076Z,56.60
2018-05-07T16:12:50.574Z,57.10
2018-05-07T16:15:18.130Z,56.70
2018-05-07T16:17:45.602Z,56.90
2018-05-07T16:20:13.133Z,57.20
2018-05-07T16:22:40.630Z,56.70
2018-05-07T16:25:08.129Z,56.30
2018-05-07T16:27:36.396Z,58.70
2018-05-07T16:30:03.941Z,58.70
2018-05-07T16:32:31.470Z,57.10
2018-05-07T16:34:58.965Z,57.90
2018-05-07T16:37:26.467Z,58.30
2018-05-07T16:39:54.741Z,58.00
2018-05-07T16:42:23.021Z,58.90
2018-05-07T16:44:51.321Z,59.20
2018-05-07T16:47:18.829Z,59.20
2018-05-07T16:49:46.323Z,58.00
2018-05-07T16:52:13.825Z,58.60
2018-05-07T16:54:41.335Z,58.80
2018-05-07T16:57:08.851Z,58.80
2018-05-07T16:59:36.351Z,60.00
2018-05-07T17:02:03.865Z,59.60
2018-05-07T17:04:31.373Z,59.40
2018-05-07T17:06:58.871Z,58.50
2018-05-07T17:09:27.159Z,58.60
2018-05-07T17:11:55.439Z,58.30
2018-05-07T17:14:23.691Z,59.00
2018-05-07T17:16:51.194Z,58.90
2018-05-07T17:19:19.456Z,59.60
2018-05-07T17:21:47.719Z,60.60
2018-05-07T17:24:15.266Z,60.50
2018-05-07T17:26:42.717Z,60.90
2018-05-07T17:29:10.222Z,61.90
2018-05-07T17:31:37.740Z,61.30
2018-05-07T17:34:05.484Z,61.30
2018-05-07T17:36:32.770Z,62.00
2018-05-07T17:39:00.260Z,62.20
2018-05-07T17:41:27.828Z,63.00
2018-05-07T17:43:55.327Z,63.40
2018-05-07T17:46:34.731Z,63.80
2018-05-07T17:49:02.290Z,64.10
2018-05-07T17:51:29.808Z,64.00
2018-05-07T17:53:57.350Z,63.70
2018-05-07T17:56:24.907Z,63.60
2018-05-07T17:58:53.182Z,64.70
2018-05-07T18:01:21.471Z,65.80
2018-05-07T18:03:48.982Z,64.90
2018-05-07T18:06:16.508Z,64.80
2018-05-07T18:08:44.001Z,66.00
2018-05-07T18:11:11.537Z,66.40
2018-05-07T18:13:39.045Z,66.10
2018-05-07T18:16:06.547Z,66.70
2018-05-07T18:18:34.831Z,65.30
2018-05-07T18:21:03.084Z,64.50
2018-05-07T18:23:30.581Z,64.50
2018-05-07T18:25:58.841Z,65.20
2018-05-07T18:28:26.333Z,65.20
2018-05-07T18:30:53.852Z,66.20
2018-05-07T18:33:21.353Z,66.90
2018-05-07T18:35:48.846Z,67.10
2018-05-07T18:38:16.341Z,66.70
2018-05-07T18:40:43.873Z,66.10
2018-05-07T18:43:11.410Z,66.80
2018-05-07T18:45:38.893Z,66.30
2018-05-07T18:48:06.384Z,65.40
2018-05-07T18:50:33.910Z,63.90
2018-05-07T18:53:01.418Z,63.50
2018-05-07T18:55:28.959Z,63.70
2018-05-07T18:57:56.509Z,63.80
2018-05-07T19:00:24.034Z,64.20
2018-05-07T19:02:52.324Z,65.20
2018-05-07T19:05:20.586Z,66.20
2018-05-07T19:07:48.136Z,66.20
2018-05-07T19:10:15.637Z,64.70
2018-05-07T19:12:43.142Z,64.30
2018-05-07T19:15:10.638Z,64.90
2018-05-07T19:17:38.132Z,65.30
2018-05-07T19:20:05.668Z,65.90
2018-05-07T19:22:33.147Z,66.40
2018-05-07T19:25:00.648Z,66.80
2018-05-07T19:27:28.165Z,66.30
2018-05-07T19:29:56.499Z,63.10
2018-05-07T19:32:23.968Z,63.00
2018-05-07T19:34:51.478Z,61.40
2018-05-07T19:37:19.757Z,57.70
2018-05-07T19:39:48.016Z,56.70
2018-05-07T19:42:15.492Z,56.60
2018-05-07T19:44:43.222Z,56.40
2018-05-07T19:47:10.723Z,55.80
2018-05-07T19:49:38.231Z,55.70
2018-05-07T19:52:05.746Z,55.60
2018-05-07T19:54:33.266Z,55.40
2018-05-07T19:57:00.776Z,55.30
2018-05-07T19:59:29.120Z,55.00
2018-05-07T20:01:56.687Z,55.00
2018-05-07T20:04:24.213Z,55.30
2018-05-07T20:06:52.064Z,55.30
2018-05-07T20:09:20.345Z,54.40
2018-05-07T20:11:47.861Z,54.50
2018-05-07T20:14:15.424Z,54.70
2018-05-07T20:16:43.633Z,54.80
2018-05-07T20:19:11.914Z,53.10
2018-05-07T20:21:39.435Z,53.10
2018-05-07T20:24:06.934Z,54.00
2018-05-07T20:26:34.435Z,52.70
2018-05-07T20:29:01.995Z,53.30
2018-05-07T20:31:29.475Z,54.40
2018-05-07T20:33:56.965Z,55.00
2018-05-07T20:36:24.483Z,55.90
2018-05-07T20:38:51.991Z,55.60
2018-05-07T20:41:19.527Z,56.00
2018-05-07T20:43:47.030Z,55.80
2018-05-07T20:46:14.531Z,56.00
2018-05-07T20:48:42.790Z,56.00
2018-05-07T20:51:10.297Z,55.90
2018-05-07T20:53:37.820Z,55.50
2018-05-07T20:56:05.376Z,55.50
2018-05-07T20:58:32.872Z,56.20
2018-05-07T21:01:00.446Z,54.90
2018-05-07T21:03:27.944Z,51.70
2018-05-07T21:05:55.456Z,52.00
2018-05-07T21:08:23.737Z,53.20
2018-05-07T21:10:52.016Z,53.20
2018-05-07T21:13:20.290Z,53.50
2018-05-07T21:15:47.814Z,53.60
2018-05-07T21:18:15.314Z,54.80
2018-05-07T21:20:43.594Z,54.40
2018-05-07T21:23:11.874Z,55.00
2018-05-07T21:25:40.142Z,54.90
2018-05-07T21:28:07.645Z,54.90
2018-05-07T21:30:35.158Z,54.80
2018-05-07T21:33:02.661Z,55.10
2018-05-07T21:35:30.920Z,54.70
2018-05-07T21:37:58.436Z,54.70
2018-05-07T21:40:25.956Z,54.70
2018-05-07T21:42:54.246Z,55.20
2018-05-07T21:45:21.754Z,55.20
2018-05-07T21:47:49.274Z,55.80
2018-05-07T21:50:17.536Z,56.50
2018-05-07T21:52:45.051Z,56.50
2018-05-07T21:55:12.577Z,55.10
2018-05-07T21:57:40.848Z,54.10
2018-05-07T22:00:09.146Z,52.80
2018-05-07T22:02:36.657Z,52.80
2018-05-07T22:05:04.192Z,52.00
2018-05-07T22:07:31.738Z,51.30
2018-05-07T22:09:59.252Z,51.80
2018-05-07T22:12:26.810Z,51.40
2018-05-07T22:14:54.265Z,53.20
2018-05-07T22:17:21.758Z,50.70
2018-05-07T22:19:49.260Z,50.10
2018-05-07T22:22:16.772Z,50.00
2018-05-07T22:24:44.283Z,50.00
2018-05-07T22:27:11.777Z,50.00
2018-05-07T22:29:39.313Z,51.40
2018-05-07T22:32:06.921Z,51.00
2018-05-07T22:34:34.353Z,51.40
2018-05-07T22:37:01.849Z,51.30
2018-05-07T22:39:29.341Z,50.50
2018-05-07T22:41:57.610Z,49.80
2018-05-07T22:44:25.109Z,49.80
2018-05-07T22:46:52.604Z,50.30
2018-05-07T22:49:20.097Z,49.80
2018-05-07T22:51:47.584Z,49.50
2018-05-07T22:54:15.863Z,50.10
2018-05-07T22:56:44.116Z,50.70
2018-05-07T22:59:11.606Z,50.70
2018-05-07T23:01:40.367Z,49.00
2018-05-07T23:04:07.875Z,49.00
2018-05-07T23:06:35.366Z,49.70
2018-05-07T23:09:02.902Z,47.90
2018-05-07T23:11:31.163Z,47.80
2018-05-07T23:13:59.437Z,48.10
2018-05-07T23:16:26.929Z,48.10
2018-05-07T23:18:54.441Z,48.10
2018-05-07T23:21:21.933Z,48.60
2018-05-07T23:23:50.199Z,49.10
2018-05-07T23:26:17.718Z,49.10
2018-05-07T23:28:45.222Z,49.00
2018-05-07T23:31:12.733Z,49.80
2018-05-07T23:33:40.241Z,49.00
2018-05-07T23:36:07.749Z,49.20
2018-05-07T23:38:35.265Z,49.30
2018-05-07T23:41:02.781Z,49.70
2018-05-07T23:43:30.287Z,49.50
2018-05-07T23:45:57.820Z,49.50
2018-05-07T23:48:25.319Z,49.20
2018-05-07T23:50:52.816Z,48.70
2018-05-07T23:53:21.085Z,48.80
2018-05-07T23:55:49.364Z,47.90
2018-05-07T23:58:16.860Z,47.80
